Time;durP1;ratioP1;P1;durP2;ratioP2;P2;SDS_P1;SDS_P2;PMS_P1;PMS_P2;Temp;Humidity;BMP_temperature;BMP_pressure;BME280_temperature;BME280_humidity;BME280_pressure;Samples;Min_cycle;Max_cycle;Signal;HPM_P1;HPM_P2
2024/04/06 00:02:18;;;;;;;350.10;333.63;;;23.30;77.20;;;;;;5070268;28;20191;-72
2024/04/06 00:04:46;;;;;;;370.00;352.60;;;23.40;78.30;;;;;;5069966;28;20646;-71
2024/04/06 00:07:13;;;;;;;172.20;163.87;;;23.70;78.50;;;;;;5072761;28;20187;-68
2024/04/06 00:09:40;;;;;;;178.03;169.47;;;23.50;77.20;;;;;;5073798;28;20183;-69
2024/04/06 00:12:08;;;;;;;166.93;158.77;;;23.60;77.20;;;;;;5073934;28;20178;-74
2024/04/06 00:14:35;;;;;;;93.57;88.80;;;23.80;78.00;;;;;;5077755;28;20227;-71
2024/04/06 00:17:02;;;;;;;43.87;41.67;;;23.80;75.70;;;;;;5070638;28;20179;-74
2024/04/06 00:19:30;;;;;;;32.63;30.83;;;23.80;75.00;;;;;;5070313;28;20171;-69
2024/04/06 00:21:57;;;;;;;28.50;27.10;;;23.80;74.70;;;;;;5073624;28;20572;-75
2024/04/06 00:24:25;;;;;;;19.80;18.70;;;24.00;75.50;;;;;;5079882;28;20230;-71
2024/04/06 00:26:52;;;;;;;13.93;13.23;;;24.10;73.80;;;;;;5071310;28;20180;-74
2024/04/06 00:29:19;;;;;;;10.97;10.17;;;24.10;73.80;;;;;;5076384;28;20171;-72
2024/04/06 00:31:47;;;;;;;9.33;8.83;;;24.20;74.00;;;;;;5075626;28;20186;-73
2024/04/06 00:34:14;;;;;;;7.60;7.10;;;24.30;73.40;;;;;;5071728;28;20206;-70
2024/04/06 00:36:42;;;;;;;5.93;5.63;;;24.30;74.60;;;;;;5076615;28;20178;-69
2024/04/06 00:39:09;;;;;;;4.33;4.13;;;24.30;73.20;;;;;;5078069;28;20268;-72
2024/04/06 00:41:37;;;;;;;2.60;2.50;;;24.50;72.60;;;;;;5080317;28;20253;-78
2024/04/06 00:44:04;;;;;;;2.00;1.90;;;24.50;71.90;;;;;;5079700;28;20263;-69
2024/04/06 00:46:32;;;;;;;2.10;2.00;;;24.70;71.90;;;;;;5079548;28;20186;-70
2024/04/06 00:48:59;;;;;;;1.60;1.50;;;24.80;71.50;;;;;;5074645;28;20225;-72
2024/04/06 00:51:26;;;;;;;1.30;1.20;;;24.80;70.60;;;;;;5080799;28;20722;-71
2024/04/06 00:53:54;;;;;;;1.30;1.20;;;24.80;70.40;;;;;;5070805;28;20187;-69
2024/04/06 00:56:22;;;;;;;1.10;1.00;;;24.80;70.50;;;;;;5077409;28;20179;-71
2024/04/06 00:58:52;;;;;;;0.87;0.87;;;24.80;71.10;;;;;;5075566;28;20186;-70
2024/04/06 01:01:19;;;;;;;0.93;0.83;;;24.80;71.50;;;;;;5076538;28;20215;-71
2024/04/06 01:03:47;;;;;;;0.90;0.90;;;24.80;71.00;;;;;;5077735;28;20179;-69
2024/04/06 01:06:14;;;;;;;1.00;0.80;;;24.90;70.80;;;;;;5075603;28;20182;-69
2024/04/06 01:08:42;;;;;;;1.30;0.80;;;25.10;69.30;;;;;;5075011;28;20195;-72
2024/04/06 01:11:10;;;;;;;0.70;0.70;;;25.10;68.70;;;;;;5073873;28;20175;-69
2024/04/06 01:13:40;;;;;;;0.53;0.53;;;25.30;68.60;;;;;;5062345;28;20187;-68
2024/04/06 01:16:07;;;;;;;0.70;0.70;;;25.40;68.40;;;;;;5075235;28;20304;-72
2024/04/06 01:18:35;;;;;;;1.77;0.70;;;25.60;68.00;;;;;;5075499;28;20183;-73
2024/04/06 01:21:03;;;;;;;0.67;0.60;;;25.60;67.30;;;;;;5076273;28;20207;-69
2024/04/06 01:23:31;;;;;;;1.83;0.80;;;25.60;66.90;;;;;;5075814;28;20266;-70
2024/04/06 01:25:58;;;;;;;1.37;0.73;;;25.70;66.70;;;;;;5075240;28;20266;-70
2024/04/06 01:28:26;;;;;;;1.53;0.80;;;25.70;67.10;;;;;;5080694;28;20174;-68
2024/04/06 01:30:53;;;;;;;0.70;0.60;;;25.60;66.80;;;;;;5071459;28;20266;-73
2024/04/06 01:33:21;;;;;;;1.00;0.80;;;25.80;66.50;;;;;;5076304;28;20183;-70
2024/04/06 01:35:48;;;;;;;1.83;0.83;;;25.70;65.00;;;;;;5075479;28;20187;-73
2024/04/06 01:38:15;;;;;;;0.70;0.70;;;25.90;67.10;;;;;;5074662;28;20225;-71
2024/04/06 01:40:43;;;;;;;1.03;0.70;;;25.90;64.20;;;;;;5074078;28;20289;-72
2024/04/06 01:43:10;;;;;;;1.00;0.70;;;25.90;63.30;;;;;;5076981;28;20183;-71
2024/04/06 01:45:37;;;;;;;1.83;0.70;;;26.20;63.80;;;;;;5075630;28;20270;-71
2024/04/06 01:48:05;;;;;;;0.70;0.70;;;25.90;63.90;;;;;;5075871;28;20186;-72
2024/04/06 01:50:32;;;;;;;0.60;0.60;;;26.00;62.70;;;;;;5075014;28;20603;-69
2024/04/06 01:53:00;;;;;;;0.40;0.40;;;26.10;63.40;;;;;;5077092;28;20301;-71
2024/04/06 01:55:27;;;;;;;1.47;0.83;;;26.30;61.70;;;;;;5074460;28;20182;-71
2024/04/06 01:57:54;;;;;;;0.80;0.80;;;26.50;61.50;;;;;;5077494;28;20266;-69
2024/04/06 02:00:21;;;;;;;2.37;0.73;;;26.70;63.20;;;;;;5080039;28;20256;-70
2024/04/06 02:02:49;;;;;;;0.80;0.70;;;26.60;62.10;;;;;;5077063;28;20209;-72
2024/04/06 02:05:16;;;;;;;0.80;0.60;;;26.70;61.80;;;;;;5075521;28;20214;-70
2024/04/06 02:07:43;;;;;;;1.03;0.60;;;26.60;63.20;;;;;;5074125;28;20638;-69
2024/04/06 02:10:10;;;;;;;1.43;0.80;;;26.70;62.10;;;;;;5072407;28;20217;-72
2024/04/06 02:12:38;;;;;;;1.97;0.70;;;26.80;61.80;;;;;;5077808;28;20202;-69
2024/04/06 02:15:05;;;;;;;0.93;0.70;;;26.90;62.10;;;;;;5073661;28;20658;-70
2024/04/06 02:17:34;;;;;;;1.53;1.00;;;27.30;60.70;;;;;;5079430;28;20187;-72
2024/04/06 02:20:01;;;;;;;3.63;0.70;;;27.70;60.20;;;;;;5052506;28;20764;-69
2024/04/06 02:22:28;;;;;;;0.60;0.60;;;27.90;59.30;;;;;;5077981;28;20258;-70
2024/04/06 02:24:55;;;;;;;0.67;0.50;;;27.90;58.00;;;;;;5073638;28;20202;-71
2024/04/06 02:27:23;;;;;;;1.13;0.60;;;28.00;57.30;;;;;;5076164;28;20621;-69
2024/04/06 02:29:50;;;;;;;1.60;0.60;;;28.20;57.10;;;;;;5075144;28;20206;-71
2024/04/06 02:32:17;;;;;;;3.07;0.90;;;28.10;57.20;;;;;;5074240;28;20645;-72
2024/04/06 02:34:45;;;;;;;1.70;0.60;;;28.30;58.00;;;;;;5078036;28;20204;-70
2024/04/06 02:37:12;;;;;;;0.50;0.50;;;28.90;56.60;;;;;;5078427;28;20172;-69
2024/04/06 02:39:39;;;;;;;0.50;0.50;;;29.00;54.60;;;;;;5074716;28;20245;-71
2024/04/06 02:42:07;;;;;;;0.57;0.30;;;28.50;53.50;;;;;;5077184;28;20234;-71
2024/04/06 02:44:34;;;;;;;0.40;0.40;;;28.10;54.60;;;;;;5076574;28;20186;-69
2024/04/06 02:47:02;;;;;;;0.57;0.40;;;27.90;54.50;;;;;;5080127;28;20232;-71
2024/04/06 02:49:29;;;;;;;1.10;0.43;;;28.00;54.60;;;;;;5075419;28;20186;-73
2024/04/06 02:51:57;;;;;;;0.73;0.40;;;28.30;53.50;;;;;;5077235;28;20220;-70
2024/04/06 02:54:24;;;;;;;1.90;0.60;;;28.80;53.40;;;;;;5075272;28;20187;-72
2024/04/06 02:56:52;;;;;;;2.87;0.40;;;28.90;53.40;;;;;;5079171;28;20372;-68
2024/04/06 02:59:19;;;;;;;0.60;0.37;;;28.80;53.30;;;;;;5059876;28;20187;-68
2024/04/06 03:01:46;;;;;;;0.47;0.40;;;28.70;52.90;;;;;;5062019;28;20214;-68
2024/04/06 03:04:13;;;;;;;0.80;0.50;;;28.30;51.90;;;;;;5072691;28;20180;-69
2024/04/06 03:06:41;;;;;;;0.30;0.30;;;28.60;53.10;;;;;;5076421;28;20182;-71
2024/04/06 03:09:08;;;;;;;0.93;0.30;;;28.50;52.00;;;;;;5073250;28;20214;-73
2024/04/06 03:11:36;;;;;;;0.50;0.30;;;28.70;50.80;;;;;;5086659;28;20190;-68
2024/04/06 03:14:03;;;;;;;0.30;0.27;;;29.00;51.50;;;;;;5075496;28;20225;-72
2024/04/06 03:16:30;;;;;;;0.30;0.30;;;29.10;50.60;;;;;;5081350;28;20630;-72
2024/04/06 03:18:58;;;;;;;0.30;0.30;;;29.00;50.20;;;;;;5076584;28;20183;-71
2024/04/06 03:21:25;;;;;;;2.73;0.50;;;28.90;49.80;;;;;;5076732;28;20730;-70
2024/04/06 03:23:52;;;;;;;0.37;0.37;;;29.20;49.60;;;;;;5076543;28;20182;-71
2024/04/06 03:26:20;;;;;;;0.57;0.40;;;29.50;47.90;;;;;;5077606;28;20187;-68
2024/04/06 03:28:48;;;;;;;0.37;0.37;;;29.60;48.60;;;;;;5073106;28;20178;-71
2024/04/06 03:31:15;;;;;;;0.30;0.20;;;29.80;47.70;;;;;;5074892;28;20176;-71
2024/04/06 03:33:43;;;;;;;0.30;0.30;;;29.60;47.30;;;;;;5079620;28;20589;-71
2024/04/06 03:36:10;;;;;;;0.33;0.27;;;29.70;48.00;;;;;;5070986;28;20214;-73
2024/04/06 03:38:37;;;;;;;0.65;0.20;;;29.80;47.90;;;;;;5080837;28;20230;-71
2024/04/06 03:41:05;;;;;;;0.80;0.40;;;30.20;46.90;;;;;;5067402;28;20696;-71
2024/04/06 03:43:35;;;;;;;0.40;0.30;;;30.40;47.20;;;;;;5078980;28;20595;-71
2024/04/06 03:46:02;;;;;;;0.20;0.20;;;30.60;45.70;;;;;;5080454;28;20187;-72
2024/04/06 03:48:32;;;;;;;1.60;0.40;;;30.10;46.80;;;;;;5074070;28;20179;-72
2024/04/06 03:50:59;;;;;;;0.32;0.30;;;30.00;46.30;;;;;;5072469;28;20211;-72
2024/04/06 03:53:32;;;;;;;2.40;0.27;;;29.70;44.20;;;;;;5081748;28;20735;-71
2024/04/06 03:55:59;;;;;;;2.22;0.30;;;29.80;42.10;;;;;;5075280;28;20179;-71
2024/04/06 03:58:27;;;;;;;0.30;0.30;;;30.10;42.50;;;;;;5081622;28;20207;-74
2024/04/06 04:00:55;;;;;;;0.80;0.30;;;30.00;42.20;;;;;;5078440;28;20222;-71
2024/04/06 04:03:23;;;;;;;0.20;0.20;;;30.30;42.40;;;;;;5081568;28;20171;-72
2024/04/06 04:05:50;;;;;;;0.47;0.30;;;30.60;41.70;;;;;;5082355;28;20245;-74
2024/04/06 04:08:17;;;;;;;0.73;0.20;;;29.40;43.00;;;;;;5076496;28;20179;-71
2024/04/06 04:10:45;;;;;;;0.20;0.20;;;29.80;42.70;;;;;;5071183;28;20191;-74
2024/04/06 04:13:12;;;;;;;2.20;0.30;;;30.30;42.60;;;;;;5080854;28;20179;-71
2024/04/06 04:15:41;;;;;;;0.50;0.20;;;30.60;42.60;;;;;;5078573;28;20258;-74
2024/04/06 04:18:09;;;;;;;0.30;0.30;;;30.20;43.10;;;;;;5079718;28;20637;-72
2024/04/06 04:20:36;;;;;;;0.30;0.30;;;30.30;42.30;;;;;;5081446;28;20211;-72
2024/04/06 04:23:04;;;;;;;0.20;0.20;;;30.50;42.70;;;;;;5081361;28;20194;-71
2024/04/06 04:25:32;;;;;;;0.73;0.43;;;30.90;41.10;;;;;;5082287;28;20266;-72
2024/04/06 04:28:00;;;;;;;0.22;0.20;;;30.90;42.70;;;;;;5080054;28;20222;-72
2024/04/06 04:30:28;;;;;;;0.38;0.30;;;31.10;41.30;;;;;;5080373;28;20318;-74
2024/04/06 04:32:55;;;;;;;0.22;0.22;;;31.30;41.70;;;;;;5079204;28;20175;-73
2024/04/06 04:35:23;;;;;;;1.85;0.30;;;31.30;41.10;;;;;;5079566;28;20179;-72
2024/04/06 04:37:50;;;;;;;0.50;0.30;;;30.90;42.20;;;;;;5084235;28;20179;-73
2024/04/06 04:40:17;;;;;;;0.80;0.20;;;30.90;42.40;;;;;;5079179;28;20227;-72
2024/04/06 04:42:45;;;;;;;0.20;0.20;;;30.00;42.30;;;;;;5077463;28;20336;-71
2024/04/06 04:45:14;;;;;;;0.35;0.35;;;29.80;42.80;;;;;;5085169;28;20186;-72
2024/04/06 04:47:44;;;;;;;0.20;0.20;;;29.90;42.10;;;;;;5077251;28;20252;-70
2024/04/06 04:50:12;;;;;;;0.73;0.30;;;29.60;43.00;;;;;;5078645;28;20248;-71
2024/04/06 04:52:39;;;;;;;0.83;0.20;;;29.50;43.60;;;;;;5083212;28;20178;-72
2024/04/06 04:55:07;;;;;;;0.25;0.25;;;29.90;43.00;;;;;;5076037;28;20579;-70
2024/04/06 04:57:34;;;;;;;0.40;0.30;;;30.70;42.20;;;;;;5082481;28;20178;-70
2024/04/06 05:00:02;;;;;;;0.50;0.40;;;30.70;42.80;;;;;;5077320;28;20179;-72
2024/04/06 05:02:29;;;;;;;0.35;0.32;;;30.80;42.60;;;;;;5081775;28;21154;-74
2024/04/06 05:04:56;;;;;;;2.10;0.30;;;30.70;42.10;;;;;;5072235;28;20301;-73
2024/04/06 05:07:24;;;;;;;0.20;0.20;;;30.00;43.90;;;;;;5079821;28;20721;-73
2024/04/06 05:09:53;;;;;;;1.85;0.32;;;29.70;43.90;;;;;;5072864;28;20198;-71
2024/04/06 05:12:20;;;;;;;0.85;0.30;;;29.90;43.80;;;;;;5071915;28;20187;-75
2024/04/06 05:14:48;;;;;;;0.77;0.30;;;30.10;43.20;;;;;;5072126;28;20205;-74
2024/04/06 05:17:15;;;;;;;1.03;0.27;;;30.50;43.30;;;;;;5075883;28;20209;-72
2024/04/06 05:19:43;;;;;;;0.70;0.40;;;30.90;41.60;;;;;;5071065;28;20183;-74
2024/04/06 05:22:10;;;;;;;0.40;0.37;;;31.00;41.40;;;;;;5078915;28;20218;-72
2024/04/06 05:24:37;;;;;;;0.93;0.30;;;30.30;43.10;;;;;;5075935;28;20183;-74
2024/04/06 05:27:05;;;;;;;0.40;0.30;;;30.60;42.40;;;;;;5076964;28;20236;-74
2024/04/06 05:29:32;;;;;;;1.02;0.20;;;30.10;43.10;;;;;;5074662;28;20738;-72
2024/04/06 05:31:59;;;;;;;1.17;0.40;;;30.80;42.30;;;;;;5073212;28;20198;-74
2024/04/06 05:34:27;;;;;;;1.75;0.25;;;30.70;41.50;;;;;;5081234;28;20762;-70
2024/04/06 05:36:54;;;;;;;1.20;0.30;;;30.90;40.80;;;;;;5081592;28;20210;-72
2024/04/06 05:39:21;;;;;;;0.30;0.30;;;31.10;40.80;;;;;;5078466;28;20222;-72
2024/04/06 05:41:49;;;;;;;0.20;0.20;;;31.30;40.70;;;;;;5073778;28;20202;-75
2024/04/06 05:44:16;;;;;;;0.20;0.20;;;32.00;37.80;;;;;;5073209;28;20194;-72
2024/04/06 05:46:44;;;;;;;0.20;0.20;;;31.70;37.40;;;;;;5075392;28;20185;-70
2024/04/06 05:49:11;;;;;;;0.20;0.20;;;31.70;37.40;;;;;;5070739;28;20183;-71
2024/04/06 05:51:38;;;;;;;0.30;0.30;;;32.40;36.20;;;;;;5075982;28;20183;-70
2024/04/06 05:54:05;;;;;;;0.32;0.20;;;31.90;37.40;;;;;;5078294;28;20232;-71
2024/04/06 05:56:33;;;;;;;1.05;0.30;;;32.50;36.20;;;;;;5073895;28;20175;-71
2024/04/06 05:59:00;;;;;;;0.30;0.30;;;32.40;36.40;;;;;;5071832;28;20183;-69
2024/04/06 06:01:28;;;;;;;0.20;0.20;;;32.00;36.00;;;;;;5073536;28;20704;-71
2024/04/06 06:03:55;;;;;;;0.30;0.30;;;32.40;37.30;;;;;;5073673;28;20660;-70
2024/04/06 06:06:22;;;;;;;0.20;0.20;;;32.10;37.90;;;;;;5075261;28;20179;-71
2024/04/06 06:08:50;;;;;;;0.30;0.30;;;32.30;37.80;;;;;;5080741;28;20262;-70
2024/04/06 06:11:17;;;;;;;1.92;0.32;;;32.30;37.20;;;;;;5072630;28;20210;-70
2024/04/06 06:13:44;;;;;;;0.30;0.30;;;31.80;37.70;;;;;;5076961;28;20193;-71
2024/04/06 06:16:11;;;;;;;2.83;0.30;;;31.10;38.30;;;;;;5076749;28;20179;-70
2024/04/06 06:18:39;;;;;;;0.30;0.30;;;31.20;38.40;;;;;;5080026;28;20170;-70
2024/04/06 06:21:06;;;;;;;0.65;0.43;;;31.40;38.00;;;;;;5073237;28;20206;-70
2024/04/06 06:23:34;;;;;;;0.30;0.30;;;31.80;38.00;;;;;;5073143;28;20281;-70
2024/04/06 06:26:01;;;;;;;1.90;0.35;;;31.70;38.40;;;;;;5074234;28;20528;-69
2024/04/06 06:28:29;;;;;;;0.60;0.40;;;31.40;38.80;;;;;;5075205;28;20271;-74
2024/04/06 06:30:58;;;;;;;0.52;0.40;;;31.30;38.90;;;;;;5075950;28;20171;-71
2024/04/06 06:33:25;;;;;;;0.40;0.30;;;31.00;38.80;;;;;;5075919;28;20304;-71
2024/04/06 06:35:53;;;;;;;0.40;0.40;;;31.10;39.60;;;;;;5077418;28;20715;-69
2024/04/06 06:38:21;;;;;;;0.20;0.20;;;31.40;39.20;;;;;;5075167;28;20231;-70
2024/04/06 06:40:52;;;;;;;2.00;0.30;;;31.30;39.30;;;;;;5079888;28;20211;-71
2024/04/06 06:43:20;;;;;;;6.40;1.65;;;31.00;39.40;;;;;;5079246;28;20663;-71
2024/04/06 06:45:47;;;;;;;4.77;1.83;;;29.80;50.10;;;;;;5079442;28;20420;-71
2024/04/06 06:48:15;;;;;;;10.88;2.47;;;30.30;50.30;;;;;;5081972;28;20691;-72
2024/04/06 06:50:42;;;;;;;6.65;2.20;;;30.80;50.50;;;;;;5070554;28;20552;-71
2024/04/06 06:53:09;;;;;;;6.43;2.22;;;30.80;50.20;;;;;;5080706;28;20175;-73
2024/04/06 06:55:37;;;;;;;6.70;1.73;;;31.20;48.80;;;;;;5082388;28;20278;-71
2024/04/06 06:58:05;;;;;;;8.82;2.35;;;31.20;48.70;;;;;;5079615;28;20187;-71
2024/04/06 07:00:33;;;;;;;9.52;2.58;;;31.10;49.80;;;;;;5081718;28;20227;-71
2024/04/06 07:03:00;;;;;;;7.47;2.53;;;31.10;49.70;;;;;;5073324;28;20239;-71
2024/04/06 07:05:27;;;;;;;7.72;2.28;;;31.30;49.50;;;;;;5082556;28;20236;-72
2024/04/06 07:07:59;;;;;;;6.57;2.27;;;30.40;50.20;;;;;;5078956;28;20186;-72
2024/04/06 07:10:27;;;;;;;8.80;2.87;;;29.40;53.40;;;;;;5078389;28;20194;-70
2024/04/06 07:12:54;;;;;;;9.07;2.80;;;28.90;55.50;;;;;;5069506;28;20764;-72
2024/04/06 07:15:21;;;;;;;10.47;2.57;;;29.30;54.40;;;;;;5078720;28;20252;-70
2024/04/06 07:17:48;;;;;;;5.40;2.43;;;29.40;53.90;;;;;;5078892;28;20191;-73
2024/04/06 07:20:16;;;;;;;9.73;3.20;;;28.70;55.50;;;;;;5076010;28;20186;-71
2024/04/06 07:22:43;;;;;;;8.77;2.77;;;27.80;58.30;;;;;;5078394;28;20649;-69
2024/04/06 07:25:10;;;;;;;8.67;2.30;;;27.60;59.30;;;;;;5075990;28;20611;-69
2024/04/06 07:27:38;;;;;;;7.67;2.37;;;27.20;60.90;;;;;;5076839;28;20698;-69
2024/04/06 07:30:06;;;;;;;6.97;2.47;;;26.90;61.70;;;;;;5081818;28;20244;-70
2024/04/06 07:32:33;;;;;;;12.33;3.37;;;26.70;62.10;;;;;;5056254;28;20607;-71
2024/04/06 07:35:02;;;;;;;11.50;3.33;;;26.30;63.20;;;;;;5076375;28;20652;-71
2024/04/06 07:37:29;;;;;;;14.00;3.00;;;26.20;63.60;;;;;;5072945;28;20186;-70
2024/04/06 07:39:57;;;;;;;7.37;2.77;;;26.00;64.70;;;;;;5075161;28;20223;-70
2024/04/06 07:42:24;;;;;;;10.07;2.97;;;25.80;65.60;;;;;;5066827;28;20305;-70
2024/04/06 07:44:51;;;;;;;11.50;3.00;;;25.80;65.50;;;;;;5049624;28;20183;-71
2024/04/06 07:47:19;;;;;;;10.73;3.80;;;25.80;66.10;;;;;;5075434;28;20719;-71
2024/04/06 07:49:46;;;;;;;13.70;3.90;;;25.60;66.60;;;;;;5072134;28;20182;-70
2024/04/06 07:52:14;;;;;;;13.20;4.07;;;25.40;67.50;;;;;;5083544;28;20225;-71
2024/04/06 07:54:41;;;;;;;10.63;3.23;;;25.30;67.60;;;;;;5080756;28;20190;-70
2024/04/06 07:57:08;;;;;;;11.67;3.23;;;25.20;67.80;;;;;;5081214;28;20181;-72
2024/04/06 07:59:36;;;;;;;13.80;4.30;;;25.20;68.10;;;;;;5082846;28;20186;-71
2024/04/06 08:02:04;;;;;;;12.37;3.53;;;25.10;68.10;;;;;;5071507;28;20215;-71
2024/04/06 08:04:31;;;;;;;8.00;2.67;;;25.00;68.80;;;;;;5077516;28;20182;-71
2024/04/06 08:06:59;;;;;;;12.60;2.90;;;24.90;68.70;;;;;;5080390;28;20206;-72
2024/04/06 08:09:26;;;;;;;9.43;2.63;;;24.80;69.10;;;;;;5078576;28;20202;-72
2024/04/06 08:11:53;;;;;;;9.93;3.20;;;24.80;69.20;;;;;;5061976;28;20227;-71
2024/04/06 08:14:20;;;;;;;5.57;2.30;;;24.80;69.00;;;;;;5052471;28;20199;-71
2024/04/06 08:16:48;;;;;;;7.87;2.53;;;24.80;69.00;;;;;;5075671;28;20190;-72
2024/04/06 08:19:15;;;;;;;5.20;2.40;;;24.70;68.30;;;;;;5073139;28;20168;-72
2024/04/06 08:21:42;;;;;;;6.93;2.70;;;24.60;67.60;;;;;;5073770;28;20214;-70
2024/04/06 08:24:09;;;;;;;6.13;2.57;;;24.60;67.60;;;;;;5079678;28;20295;-71
2024/04/06 08:26:37;;;;;;;5.03;2.20;;;24.50;67.80;;;;;;5072529;28;20179;-71
2024/04/06 08:29:04;;;;;;;4.70;2.57;;;24.50;67.30;;;;;;5078714;28;20182;-72
2024/04/06 08:31:31;;;;;;;5.07;2.53;;;24.40;67.10;;;;;;5075967;28;20592;-72
2024/04/06 08:33:59;;;;;;;4.23;2.10;;;24.40;66.30;;;;;;5078590;28;20551;-71
2024/04/06 08:36:26;;;;;;;5.33;2.30;;;24.40;66.10;;;;;;5076294;28;20637;-71
2024/04/06 08:38:53;;;;;;;6.77;2.10;;;24.30;65.60;;;;;;5077948;28;20231;-70
2024/04/06 08:41:22;;;;;;;4.23;1.77;;;24.30;65.50;;;;;;5075935;28;20260;-70
2024/04/06 08:43:57;;;;;;;2.80;1.80;;;24.30;64.90;;;;;;5077386;28;20217;-71
2024/04/06 08:46:25;;;;;;;3.40;2.13;;;24.30;64.90;;;;;;5073644;28;20491;-69
2024/04/06 08:48:53;;;;;;;3.03;2.00;;;24.30;65.00;;;;;;5071027;28;20633;-70
2024/04/06 08:51:23;;;;;;;11.20;2.10;;;24.30;65.00;;;;;;5089339;28;20266;-70
2024/04/06 08:53:50;;;;;;;3.10;1.97;;;24.20;65.50;;;;;;5075778;28;20183;-70
2024/04/06 08:56:18;;;;;;;4.53;2.50;;;24.10;65.30;;;;;;5056764;28;20606;-72
2024/04/06 08:58:48;;;;;;;5.33;1.80;;;24.10;65.50;;;;;;5079769;28;20187;-71
2024/04/06 09:01:16;;;;;;;3.80;1.97;;;24.00;66.30;;;;;;5079055;28;20252;-71
2024/04/06 09:03:43;;;;;;;3.67;1.60;;;23.90;66.80;;;;;;5080469;28;20251;-73
2024/04/06 09:06:20;;;;;;;3.50;2.20;;;23.80;67.00;;;;;;5076962;28;20180;-70
2024/04/06 09:08:48;;;;;;;2.30;1.60;;;23.70;67.20;;;;;;5079769;28;20197;-71
2024/04/06 09:11:15;;;;;;;2.93;1.70;;;23.70;66.90;;;;;;5076026;28;20187;-72
2024/04/06 09:13:43;;;;;;;1.87;1.47;;;23.70;66.40;;;;;;5080549;28;20676;-71
2024/04/06 09:16:10;;;;;;;2.00;1.53;;;23.70;66.10;;;;;;5080666;28;20191;-70
2024/04/06 09:18:41;;;;;;;8.53;1.77;;;23.70;66.00;;;;;;5080066;28;20220;-72
2024/04/06 09:21:08;;;;;;;1.90;1.30;;;23.70;65.10;;;;;;5079119;28;20207;-71
2024/04/06 09:23:36;;;;;;;1.70;1.13;;;23.70;65.00;;;;;;5080488;28;20266;-70
2024/04/06 09:26:04;;;;;;;1.13;1.03;;;23.70;64.50;;;;;;5082457;28;20182;-71
2024/04/06 09:28:33;;;;;;;3.00;1.47;;;23.70;65.20;;;;;;5081567;28;20905;-70
2024/04/06 09:31:01;;;;;;;1.30;1.10;;;23.60;64.40;;;;;;5078782;28;20179;-71
2024/04/06 09:33:30;;;;;;;1.37;1.20;;;23.60;64.40;;;;;;5078118;28;20187;-70
2024/04/06 09:35:57;;;;;;;1.87;1.30;;;23.60;64.50;;;;;;5074652;28;20263;-71
2024/04/06 09:38:25;;;;;;;2.13;1.40;;;23.60;64.40;;;;;;5077304;28;20219;-70
2024/04/06 09:40:54;;;;;;;2.10;1.00;;;23.50;64.40;;;;;;5079169;28;20267;-72
2024/04/06 09:43:22;;;;;;;2.33;1.20;;;23.50;64.20;;;;;;5080828;28;20225;-71
2024/04/06 09:45:49;;;;;;;2.20;1.00;;;23.50;64.60;;;;;;5084538;28;20526;-69
2024/04/06 09:48:19;;;;;;;1.47;0.97;;;23.40;64.90;;;;;;5079165;28;20218;-71
2024/04/06 09:50:50;;;;;;;2.20;0.80;;;23.40;65.20;;;;;;5080502;28;20179;-70
2024/04/06 09:53:18;;;;;;;1.70;0.93;;;23.30;65.40;;;;;;5077047;28;20201;-71
2024/04/06 09:55:46;;;;;;;1.00;0.80;;;23.30;65.50;;;;;;5085581;28;20190;-71
2024/04/06 09:58:17;;;;;;;1.93;0.73;;;23.20;66.00;;;;;;5074010;28;20598;-71
2024/04/06 10:00:48;;;;;;;1.30;0.90;;;23.20;65.70;;;;;;5072945;28;20579;-70
2024/04/06 10:03:15;;;;;;;1.93;1.00;;;23.20;65.90;;;;;;5076996;28;20179;-70
2024/04/06 10:05:46;;;;;;;1.27;0.90;;;23.20;66.00;;;;;;5080411;28;20205;-70
2024/04/06 10:08:19;;;;;;;2.90;0.90;;;23.10;65.60;;;;;;5078728;28;20183;-71
2024/04/06 10:10:50;;;;;;;1.80;0.90;;;23.10;65.80;;;;;;5071319;28;20190;-71
2024/04/06 10:13:21;;;;;;;5.00;0.90;;;23.00;65.50;;;;;;5077023;28;20181;-71
2024/04/06 10:15:48;;;;;;;1.20;0.90;;;23.00;65.00;;;;;;5078607;28;20186;-70
2024/04/06 10:18:17;;;;;;;1.20;1.10;;;23.00;65.00;;;;;;5079497;28;20188;-70
2024/04/06 10:20:44;;;;;;;1.93;1.10;;;23.00;64.90;;;;;;5079760;28;20306;-72
2024/04/06 10:23:14;;;;;;;2.27;0.80;;;22.90;65.50;;;;;;5079653;28;20172;-70
2024/04/06 10:25:41;;;;;;;2.13;0.97;;;22.90;65.50;;;;;;5078124;28;20235;-71
2024/04/06 10:28:10;;;;;;;1.67;1.00;;;22.80;65.70;;;;;;5078369;28;20580;-72
2024/04/06 10:30:39;;;;;;;0.90;0.80;;;22.80;65.90;;;;;;5081358;28;20190;-71
2024/04/06 10:33:08;;;;;;;3.03;0.90;;;22.80;66.20;;;;;;5078245;28;20213;-72
2024/04/06 10:35:35;;;;;;;1.10;0.83;;;22.80;65.90;;;;;;5077336;28;20187;-71
2024/04/06 10:38:03;;;;;;;1.53;1.23;;;22.80;66.20;;;;;;5076890;28;20178;-72
2024/04/06 10:40:37;;;;;;;1.33;0.70;;;22.80;66.00;;;;;;5074850;28;20202;-71
2024/04/06 10:43:04;;;;;;;1.40;0.80;;;22.80;65.60;;;;;;5072713;28;20173;-70
2024/04/06 10:45:32;;;;;;;0.70;0.70;;;22.80;65.40;;;;;;5076385;28;20197;-72
2024/04/06 10:47:59;;;;;;;2.40;0.60;;;22.80;65.00;;;;;;5074104;28;20731;-71
2024/04/06 10:50:27;;;;;;;1.53;0.90;;;22.80;65.70;;;;;;5073987;28;20621;-70
2024/04/06 10:52:57;;;;;;;1.17;0.90;;;22.80;65.90;;;;;;5076406;28;20179;-71
2024/04/06 10:55:25;;;;;;;3.47;0.87;;;22.80;66.10;;;;;;5076645;28;20197;-71
2024/04/06 10:57:55;;;;;;;1.13;0.90;;;22.70;66.30;;;;;;5077724;28;20217;-72
2024/04/06 11:00:24;;;;;;;1.50;0.70;;;22.60;66.50;;;;;;5076019;28;20175;-72
2024/04/06 11:02:51;;;;;;;3.93;0.90;;;22.60;66.60;;;;;;5081976;28;20690;-71
2024/04/06 11:05:20;;;;;;;1.57;0.77;;;22.50;67.20;;;;;;5066587;28;20615;-73
2024/04/06 11:07:47;;;;;;;1.27;0.60;;;22.40;67.30;;;;;;5085597;28;20285;-71
2024/04/06 11:10:15;;;;;;;1.03;0.50;;;22.40;67.60;;;;;;5075490;28;20175;-71
2024/04/06 11:12:43;;;;;;;0.60;0.60;;;22.30;67.70;;;;;;5071426;28;20203;-70
2024/04/06 11:15:12;;;;;;;1.10;0.80;;;22.30;67.70;;;;;;5072360;28;20175;-70
2024/04/06 11:17:40;;;;;;;0.93;0.70;;;22.30;68.00;;;;;;5083724;28;20286;-71
2024/04/06 11:20:09;;;;;;;1.83;0.70;;;22.20;68.20;;;;;;5077519;28;20190;-71
2024/04/06 11:22:40;;;;;;;0.73;0.60;;;22.10;68.20;;;;;;5079609;28;20966;-71
2024/04/06 11:25:13;;;;;;;0.73;0.60;;;22.10;68.10;;;;;;5072905;28;20183;-70
2024/04/06 11:27:47;;;;;;;1.90;0.60;;;22.10;67.90;;;;;;5067099;28;20212;-71
2024/04/06 11:30:16;;;;;;;0.77;0.60;;;22.20;67.50;;;;;;5071319;28;20645;-71
2024/04/06 11:32:45;;;;;;;1.03;0.70;;;22.20;67.80;;;;;;5084235;28;20641;-72
2024/04/06 11:35:12;;;;;;;0.73;0.70;;;22.10;67.80;;;;;;5071742;28;20191;-72
2024/04/06 11:37:40;;;;;;;1.37;0.80;;;22.10;68.10;;;;;;5079497;28;20186;-71
2024/04/06 11:40:08;;;;;;;1.00;0.60;;;22.00;68.50;;;;;;5070772;28;20272;-71
2024/04/06 11:42:35;;;;;;;0.80;0.80;;;22.00;68.80;;;;;;5075336;28;20230;-71
2024/04/06 11:45:04;;;;;;;1.07;0.60;;;21.90;68.90;;;;;;5090158;28;20578;-71
2024/04/06 11:47:32;;;;;;;8.13;0.83;;;21.80;69.30;;;;;;5097178;28;20652;-71
2024/04/06 11:50:00;;;;;;;0.77;0.70;;;21.70;69.60;;;;;;5073189;28;20194;-70
2024/04/06 11:52:28;;;;;;;2.20;0.80;;;21.70;69.90;;;;;;5073400;28;20648;-71
2024/04/06 11:55:01;;;;;;;4.10;1.03;;;21.60;70.40;;;;;;5071805;28;20183;-71
2024/04/06 11:57:29;;;;;;;1.20;0.90;;;21.60;70.70;;;;;;5097981;28;20661;-70
2024/04/06 11:59:57;;;;;;;1.77;1.23;;;21.60;71.10;;;;;;5073466;28;21703;-70
2024/04/06 12:02:24;;;;;;;0.70;0.70;;;21.50;71.50;;;;;;5082256;28;20222;-71
2024/04/06 12:04:52;;;;;;;1.07;0.80;;;21.50;71.30;;;;;;5071367;28;20175;-71
2024/04/06 12:07:19;;;;;;;0.77;0.70;;;21.40;71.50;;;;;;5083011;28;20657;-70
2024/04/06 12:09:47;;;;;;;0.70;0.70;;;21.40;71.50;;;;;;5077233;28;20492;-71
2024/04/06 12:12:14;;;;;;;0.87;0.70;;;21.40;71.40;;;;;;5077990;28;20191;-70
2024/04/06 12:14:44;;;;;;;3.20;0.83;;;21.30;71.40;;;;;;5070333;28;20182;-71
2024/04/06 12:17:19;;;;;;;4.17;0.90;;;21.30;71.40;;;;;;5077434;28;20177;-71
2024/04/06 12:19:46;;;;;;;1.37;0.90;;;21.30;71.60;;;;;;5072985;28;20261;-70
2024/04/06 12:22:14;;;;;;;1.20;0.93;;;21.30;71.90;;;;;;5077065;28;20215;-70
2024/04/06 12:24:41;;;;;;;4.40;1.00;;;21.30;72.50;;;;;;5059243;28;20277;-71
2024/04/06 12:27:11;;;;;;;1.10;0.90;;;21.30;72.60;;;;;;5081780;28;20329;-70
2024/04/06 12:29:38;;;;;;;2.73;0.80;;;21.20;72.90;;;;;;5078018;28;20647;-69
2024/04/06 12:32:06;;;;;;;1.50;1.20;;;21.20;73.10;;;;;;5081514;28;20195;-70
2024/04/06 12:34:33;;;;;;;1.00;0.90;;;21.20;73.00;;;;;;5084309;28;20174;-71
2024/04/06 12:37:01;;;;;;;1.73;0.80;;;21.20;73.30;;;;;;5085912;28;20625;-71
2024/04/06 12:39:29;;;;;;;3.47;0.97;;;21.10;73.30;;;;;;5084258;28;20580;-72
2024/04/06 12:41:56;;;;;;;0.90;0.83;;;21.10;73.60;;;;;;5084018;28;20609;-72
2024/04/06 12:44:23;;;;;;;4.40;1.07;;;21.00;73.70;;;;;;5082986;28;20178;-71
2024/04/06 12:46:53;;;;;;;2.27;1.00;;;20.90;73.90;;;;;;5078045;28;20211;-73
2024/04/06 12:49:21;;;;;;;2.83;0.97;;;20.90;74.20;;;;;;5081903;28;20211;-72